Time;durP1;ratioP1;P1;durP2;ratioP2;P2;SDS_P1;SDS_P2;PMS_P1;PMS_P2;Temp;Humidity;BMP_temperature;BMP_pressure;BME280_temperature;BME280_humidity;BME280_pressure;Samples;Min_cycle;Max_cycle;Signal;HPM_P1;HPM_P2
2023/08/30 00:00:48;;;;;;;3.50;3.20;;;;;;;14.65;91.52;100848.22;5093588;28;20066;-73
2023/08/30 00:03:13;;;;;;;4.00;3.60;;;;;;;14.65;91.52;100849.06;5095421;28;20026;-73
2023/08/30 00:05:40;;;;;;;3.58;3.28;;;;;;;14.64;91.89;100842.09;5092974;28;20258;-73
2023/08/30 00:08:05;;;;;;;3.55;3.25;;;;;;;14.64;91.56;100844.72;5094180;28;20267;-73
2023/08/30 00:10:31;;;;;;;5.03;3.50;;;;;;;14.65;91.65;100846.44;5089398;28;20095;-73
2023/08/30 00:12:56;;;;;;;3.60;3.33;;;;;;;14.65;91.83;100840.31;5095498;28;20039;-73
2023/08/30 00:15:22;;;;;;;3.85;3.55;;;;;;;14.65;91.65;100835.06;5072212;28;20533;-73
2023/08/30 00:17:51;;;;;;;3.83;3.53;;;;;;;14.64;91.48;100842.09;5095403;28;20060;-73
2023/08/30 00:20:20;;;;;;;3.50;3.30;;;;;;;14.65;91.48;100832.41;5090155;28;20315;-73
2023/08/30 00:22:46;;;;;;;4.03;3.72;;;;;;;14.66;91.66;100826.19;5074693;28;20243;-73
2023/08/30 00:25:12;;;;;;;4.18;3.72;;;;;;;14.64;91.54;100823.63;5093580;28;20035;-73
2023/08/30 00:27:37;;;;;;;3.83;3.53;;;;;;;14.65;91.72;100822.72;5094175;28;20055;-73
2023/08/30 00:30:04;;;;;;;4.00;3.70;;;;;;;14.66;91.95;100829.69;5092383;28;20036;-73
2023/08/30 00:32:29;;;;;;;3.85;3.38;;;;;;;14.66;92.02;100821.78;5094130;28;20032;-73
2023/08/30 00:34:54;;;;;;;3.72;3.38;;;;;;;14.65;92.02;100825.34;5091501;28;20163;-73
2023/08/30 00:37:20;;;;;;;4.00;3.60;;;;;;;14.65;91.96;100820.06;5085453;28;20028;-73
2023/08/30 00:39:45;;;;;;;4.72;3.53;;;;;;;14.66;92.20;100815.66;5094010;28;20030;-73
2023/08/30 00:42:10;;;;;;;5.35;3.67;;;;;;;14.66;92.13;100816.53;5089376;28;20103;-73
2023/08/30 00:44:36;;;;;;;4.10;3.55;;;;;;;14.66;92.13;100815.66;5094630;28;20220;-73
2023/08/30 00:47:02;;;;;;;4.07;3.58;;;;;;;14.66;92.13;100810.38;5088513;28;20274;-73
2023/08/30 00:49:30;;;;;;;4.88;4.20;;;;;;;14.66;92.19;100808.63;5094588;28;20028;-73
2023/08/30 00:51:57;;;;;;;4.07;3.70;;;;;;;14.66;92.20;100807.75;5087864;28;20090;-73
2023/08/30 00:54:22;;;;;;;4.10;3.70;;;;;;;14.66;92.32;100808.63;5094345;28;20407;-73
2023/08/30 00:56:48;;;;;;;3.88;3.58;;;;;;;14.65;92.01;100806.91;5083877;28;20020;-73
2023/08/30 00:59:14;;;;;;;4.18;3.78;;;;;;;14.65;92.21;100799.00;5098060;28;20311;-73
2023/08/30 01:01:40;;;;;;;4.15;3.85;;;;;;;14.67;92.26;100801.53;5091139;28;20043;-73
2023/08/30 01:04:05;;;;;;;4.10;3.80;;;;;;;14.68;92.06;100803.22;5089602;28;20032;-73
2023/08/30 01:06:31;;;;;;;4.10;3.70;;;;;;;14.67;92.21;100804.19;5079899;28;20396;-73
2023/08/30 01:08:56;;;;;;;4.88;3.30;;;;;;;14.68;92.15;100804.09;5078673;28;20032;-73
2023/08/30 01:11:29;;;;;;;4.28;3.88;;;;;;;14.67;92.15;100794.47;5080886;28;20331;-73
2023/08/30 01:14:05;;;;;;;5.03;3.88;;;;;;;14.66;92.03;100795.44;5079015;28;20032;-73
2023/08/30 01:16:31;;;;;;;3.80;3.50;;;;;;;14.67;92.22;100791.84;5090073;28;20362;-73
2023/08/30 01:19:01;;;;;;;5.05;4.25;;;;;;;14.69;92.02;100791.75;5098801;28;20071;-73
2023/08/30 01:22:00;;;;;;;4.18;3.78;;;;;;;14.68;92.14;100788.28;5097465;28;20102;-73
2023/08/30 01:24:44;;;;;;;4.22;3.70;;;;;;;14.68;92.38;100784.78;5096822;28;20634;-73
2023/08/30 01:27:11;;;;;;;4.22;3.85;;;;;;;14.68;92.54;100779.50;5083480;28;20040;-73
2023/08/30 01:29:39;;;;;;;4.22;3.83;;;;;;;14.68;92.53;100768.97;5077638;28;20083;-73
2023/08/30 01:32:07;;;;;;;3.97;3.60;;;;;;;14.68;92.27;100775.09;5080613;28;20040;-73
2023/08/30 01:34:34;;;;;;;4.20;3.80;;;;;;;14.68;92.55;100780.38;5087942;28;20338;-73
2023/08/30 01:37:00;;;;;;;5.97;4.07;;;;;;;14.68;92.27;100780.38;5062835;28;20067;-73
2023/08/30 01:39:26;;;;;;;4.18;3.88;;;;;;;14.68;92.55;100776.88;5077383;28;20032;-73
2023/08/30 01:41:58;;;;;;;4.28;3.97;;;;;;;14.68;92.41;100780.38;5081415;28;20043;-73
2023/08/30 01:44:25;;;;;;;4.75;4.20;;;;;;;14.69;92.54;100778.56;5077070;28;20032;-73
2023/08/30 01:46:50;;;;;;;5.80;3.95;;;;;;;14.68;92.30;100777.72;5088364;28;20362;-73
2023/08/30 01:49:15;;;;;;;4.78;4.35;;;;;;;14.69;92.67;100776.78;5077660;28;20036;-73
2023/08/30 01:51:41;;;;;;;4.53;4.03;;;;;;;14.70;92.67;100775.00;5088536;28;20344;-73
2023/08/30 01:54:09;;;;;;;4.75;4.35;;;;;;;14.69;92.46;100768.03;5077493;28;20343;-73
2023/08/30 01:56:34;;;;;;;5.55;4.75;;;;;;;14.70;92.60;100767.09;5088620;28;20111;-73
2023/08/30 01:58:59;;;;;;;4.30;3.90;;;;;;;14.70;92.61;100767.09;5077835;28;20044;-73
2023/08/30 02:01:25;;;;;;;6.03;4.88;;;;;;;14.70;92.61;100765.31;5088933;28;20043;-73
2023/08/30 02:03:50;;;;;;;6.03;4.75;;;;;;;14.70;92.77;100770.59;5083179;28;20379;-73
2023/08/30 02:06:26;;;;;;;4.55;4.15;;;;;;;14.69;92.84;100760.97;5094536;28;20393;-73
2023/08/30 02:08:59;;;;;;;5.60;5.10;;;;;;;14.69;92.88;100753.06;5076868;28;20047;-73
2023/08/30 02:11:27;;;;;;;9.45;5.90;;;;;;;14.70;92.81;100760.03;5091583;28;20043;-73
2023/08/30 02:13:54;;;;;;;;;;;;;;;14.69;92.93;100750.41;5098336;28;20148;-73
2023/08/30 02:16:22;;;;;;;5.18;4.72;;;;;;;14.70;92.79;100751.28;5094378;28;20088;-73
2023/08/30 02:18:48;;;;;;;5.05;4.63;;;;;;;14.71;92.94;100750.34;5077742;28;20055;-73
2023/08/30 02:21:14;;;;;;;5.25;4.75;;;;;;;14.70;92.60;100752.13;5089851;28;20042;-73
2023/08/30 02:23:39;;;;;;;5.18;4.28;;;;;;;14.71;93.06;100739.78;5077738;28;20090;-73
2023/08/30 02:26:05;;;;;;;5.72;4.88;;;;;;;14.70;93.15;100735.47;5088602;28;20044;-73
2023/08/30 02:28:31;;;;;;;5.70;5.20;;;;;;;14.71;93.15;100745.06;5094970;28;20060;-73
2023/08/30 02:30:56;;;;;;;5.93;5.32;;;;;;;14.70;92.99;100743.38;5097295;28;20035;-73
2023/08/30 02:33:22;;;;;;;6.18;5.57;;;;;;;14.70;93.07;100738.94;5082782;28;20075;-73
2023/08/30 02:35:47;;;;;;;6.18;5.22;;;;;;;14.71;93.24;100734.53;5094797;28;20260;-73
2023/08/30 02:38:12;;;;;;;5.40;4.95;;;;;;;14.71;93.33;100737.16;5080643;28;20044;-73
2023/08/30 02:40:38;;;;;;;5.25;4.80;;;;;;;14.71;92.91;100734.53;5082528;28;20032;-73
2023/08/30 02:43:03;;;;;;;5.07;4.57;;;;;;;14.70;92.96;100725.78;5084575;28;20056;-73
2023/08/30 02:45:29;;;;;;;4.90;4.50;;;;;;;14.71;93.22;100723.97;5082963;28;20031;-73
2023/08/30 02:47:57;;;;;;;5.43;4.93;;;;;;;14.72;92.91;100720.41;5083393;28;20426;-73
2023/08/30 02:50:23;;;;;;;4.43;4.03;;;;;;;14.72;93.04;100717.78;5080285;28;20032;-73
2023/08/30 02:52:48;;;;;;;5.07;4.68;;;;;;;14.71;93.22;100710.78;5087382;28;20262;-75
2023/08/30 02:55:14;;;;;;;4.97;4.57;;;;;;;14.70;93.15;100712.59;5078774;28;20047;-75
2023/08/30 02:57:39;;;;;;;6.90;4.97;;;;;;;14.69;92.91;100708.25;5095629;28;20204;-75
2023/08/30 03:00:05;;;;;;;6.03;4.72;;;;;;;14.68;92.87;100698.66;5096060;28;20039;-75
2023/08/30 03:02:33;;;;;;;5.82;5.15;;;;;;;14.66;93.00;100692.63;5090390;28;20036;-75
2023/08/30 03:04:59;;;;;;;6.30;5.13;;;;;;;14.66;92.89;100687.38;5090881;28;20024;-75
2023/08/30 03:07:25;;;;;;;5.28;4.75;;;;;;;14.67;93.28;100677.66;5085748;28;20051;-75
2023/08/30 03:09:53;;;;;;;6.00;5.40;;;;;;;14.65;93.38;100675.13;5075805;28;20087;-75
2023/08/30 03:12:19;;;;;;;;;;;;;;;14.65;93.33;100663.75;5092243;28;20080;-75
2023/08/30 03:14:44;;;;;;;5.97;5.38;;;;;;;14.63;93.53;100670.88;5076146;28;19916;-75
2023/08/30 03:17:09;;;;;;;5.53;5.00;;;;;;;14.63;93.13;100670.88;5094365;28;20082;-75
2023/08/30 03:19:35;;;;;;;5.80;5.30;;;;;;;14.61;93.38;100664.84;5075359;28;20048;-75
2023/08/30 03:22:00;;;;;;;6.13;5.63;;;;;;;14.59;93.20;100660.53;5091362;28;20035;-75
2023/08/30 03:24:25;;;;;;;6.45;5.63;;;;;;;14.58;93.32;100661.44;5077363;28;20091;-75
2023/08/30 03:26:51;;;;;;;6.30;5.70;;;;;;;14.57;93.53;100658.88;5082075;28;20074;-75
2023/08/30 03:29:16;;;;;;;6.28;5.60;;;;;;;14.57;93.43;100658.88;5075311;28;20051;-75
2023/08/30 03:31:43;;;;;;;6.57;5.68;;;;;;;14.55;93.56;100658.13;5088313;28;20066;-75
2023/08/30 03:34:09;;;;;;;6.47;5.40;;;;;;;14.53;93.56;100650.31;5084876;28;20032;-75
2023/08/30 03:36:34;;;;;;;8.15;6.10;;;;;;;14.52;93.83;100651.25;5073257;28;20046;-75
2023/08/30 03:39:00;;;;;;;7.38;5.70;;;;;;;14.52;93.43;100650.41;5092120;28;20059;-75
2023/08/30 03:41:25;;;;;;;7.28;5.53;;;;;;;14.50;93.39;100644.41;5094784;28;20450;-75
2023/08/30 03:43:51;;;;;;;7.38;5.47;;;;;;;14.48;93.42;100641.84;5094515;28;20042;-75
2023/08/30 03:46:16;;;;;;;6.07;5.57;;;;;;;14.48;93.67;100638.34;5095311;28;20350;-75
2023/08/30 03:48:41;;;;;;;6.57;5.65;;;;;;;14.46;93.75;100637.59;5080782;28;20048;-75
2023/08/30 03:51:07;;;;;;;6.00;5.47;;;;;;;14.44;93.62;100634.22;5081907;28;20054;-75
2023/08/30 03:53:32;;;;;;;6.88;5.88;;;;;;;14.42;93.53;100631.66;5087288;28;20129;-75
2023/08/30 03:55:57;;;;;;;6.68;5.80;;;;;;;14.41;93.61;100632.63;5078651;28;20307;-75
2023/08/30 03:58:23;;;;;;;6.88;5.75;;;;;;;14.39;93.53;100631.88;5094233;28;20032;-75
2023/08/30 04:00:48;;;;;;;7.07;5.70;;;;;;;14.36;93.51;100632.88;5083164;28;20208;-75
2023/08/30 04:03:15;;;;;;;11.98;5.88;;;;;;;14.35;93.45;100633.84;5092108;28;20323;-75
2023/08/30 04:05:41;;;;;;;10.32;6.50;;;;;;;14.33;93.23;100630.41;5094847;28;20036;-75
2023/08/30 04:08:07;;;;;;;7.00;6.40;;;;;;;14.31;93.44;100624.41;5093181;28;20347;-75
2023/08/30 04:10:36;;;;;;;5.78;5.28;;;;;;;14.32;93.34;100633.16;5074833;28;20091;-75
2023/08/30 04:13:05;;;;;;;6.85;6.20;;;;;;;14.29;93.39;100621.00;5088540;28;20040;-75
2023/08/30 04:15:34;;;;;;;6.68;6.07;;;;;;;14.28;93.78;100621.97;5074581;28;20028;-75
2023/08/30 04:18:00;;;;;;;8.15;6.40;;;;;;;14.27;93.54;100620.25;5074828;28;20235;-75
2023/08/30 04:20:25;;;;;;;7.20;6.30;;;;;;;14.26;93.61;100615.06;5074197;28;20108;-75
2023/08/30 04:22:51;;;;;;;6.93;6.30;;;;;;;14.25;93.70;100616.03;5093944;28;20035;-75
2023/08/30 04:25:16;;;;;;;7.25;6.53;;;;;;;14.23;93.51;100602.94;5093718;28;20072;-75
2023/08/30 04:27:41;;;;;;;6.60;5.88;;;;;;;14.22;93.74;100601.25;5081136;28;20043;-75
2023/08/30 04:30:07;;;;;;;7.72;5.72;;;;;;;14.21;93.51;100597.78;5074690;28;20106;-75
2023/08/30 04:32:33;;;;;;;6.28;5.75;;;;;;;14.21;93.61;100596.94;5089538;28;20239;-75
2023/08/30 04:34:58;;;;;;;6.80;6.07;;;;;;;14.21;93.58;100594.31;5079574;28;20097;-75
2023/08/30 04:37:23;;;;;;;7.80;6.47;;;;;;;14.19;93.44;100601.44;5087550;28;20107;-75
2023/08/30 04:39:49;;;;;;;8.75;6.05;;;;;;;14.18;93.31;100600.59;5094937;28;20040;-75
2023/08/30 04:42:15;;;;;;;7.10;6.40;;;;;;;14.19;93.21;100590.91;5094890;28;20031;-75
2023/08/30 04:44:40;;;;;;;7.20;5.93;;;;;;;14.17;93.18;100593.63;5082853;28;20069;-75
2023/08/30 04:47:06;;;;;;;7.07;6.38;;;;;;;14.18;93.29;100589.22;5094432;28;20027;-75
2023/08/30 04:49:31;;;;;;;8.38;6.90;;;;;;;14.17;93.21;100598.03;5080691;28;20043;-75
2023/08/30 04:51:57;;;;;;;7.20;5.88;;;;;;;14.16;93.70;100594.56;5084257;28;20081;-75
2023/08/30 04:54:22;;;;;;;10.45;6.85;;;;;;;14.17;93.70;100605.94;5086149;28;20036;-75
2023/08/30 04:56:47;;;;;;;13.15;7.50;;;;;;;14.15;93.79;100611.31;5082596;28;20040;-75
2023/08/30 04:59:13;;;;;;;7.60;6.50;;;;;;;14.16;94.04;100615.63;5088655;28;20067;-75
2023/08/30 05:01:41;;;;;;;10.73;6.53;;;;;;;14.15;94.08;100621.84;5080531;28;20094;-75
2023/08/30 05:04:07;;;;;;;7.05;6.35;;;;;;;14.16;94.05;100617.44;5089880;28;20235;-75
2023/08/30 05:06:32;;;;;;;7.65;6.85;;;;;;;14.15;94.49;100623.63;5078600;28;20027;-75
2023/08/30 05:08:58;;;;;;;7.70;6.78;;;;;;;14.14;94.78;100614.03;5082194;28;20028;-75
2023/08/30 05:11:23;;;;;;;10.30;7.28;;;;;;;14.15;94.83;100613.09;5088142;28;20095;-75
2023/08/30 05:13:49;;;;;;;10.00;7.07;;;;;;;14.13;95.00;100602.63;5091162;28;20355;-75
2023/08/30 05:16:14;;;;;;;12.38;8.10;;;;;;;14.13;95.21;100613.16;5093854;28;20085;-75
2023/08/30 05:18:39;;;;;;;9.95;7.82;;;;;;;14.13;95.38;100599.16;5088917;28;20039;-75
2023/08/30 05:21:05;;;;;;;9.27;7.68;;;;;;;14.13;95.80;100604.44;5083548;28;20024;-75
2023/08/30 05:23:31;;;;;;;10.68;7.22;;;;;;;14.12;95.97;100590.41;5081760;28;20047;-75
2023/08/30 05:25:56;;;;;;;8.63;7.55;;;;;;;14.12;96.22;100593.06;5080779;28;20040;-75
2023/08/30 05:28:22;;;;;;;10.02;7.65;;;;;;;14.11;96.64;100583.44;5082774;28;20032;-75
2023/08/30 05:30:47;;;;;;;11.00;8.05;;;;;;;14.12;96.98;100592.22;5081406;28;20080;-75
2023/08/30 05:33:12;;;;;;;8.88;7.07;;;;;;;14.12;97.29;100600.97;5082873;28;20037;-75
2023/08/30 05:35:38;;;;;;;10.40;7.38;;;;;;;14.11;97.50;100586.09;5079438;28;20111;-75
2023/08/30 05:38:03;;;;;;;10.85;7.93;;;;;;;14.12;97.52;100576.41;5081971;28;20028;-75
2023/08/30 05:40:28;;;;;;;10.35;7.78;;;;;;;14.11;98.03;100580.81;5088074;28;20245;-75
2023/08/30 05:42:54;;;;;;;10.88;7.78;;;;;;;14.11;98.34;100574.72;5084954;28;20036;-75
2023/08/30 05:45:20;;;;;;;11.25;6.85;;;;;;;14.11;98.58;100570.28;5090458;28;20052;-75
2023/08/30 05:47:46;;;;;;;8.45;7.57;;;;;;;14.11;99.00;100565.00;5086301;28;20044;-75
2023/08/30 05:50:11;;;;;;;9.25;8.30;;;;;;;14.11;98.99;100566.81;5094403;28;20188;-75
2023/08/30 05:52:41;;;;;;;8.93;7.80;;;;;;;14.11;99.19;100570.28;5085327;28;20085;-75
2023/08/30 05:55:07;;;;;;;11.48;7.95;;;;;;;14.11;99.87;100553.66;5096833;28;20074;-75
2023/08/30 05:57:33;;;;;;;11.15;8.10;;;;;;;14.11;100.00;100553.66;5096716;28;20032;-75
2023/08/30 05:59:59;;;;;;;8.43;7.63;;;;;;;14.11;100.00;100553.66;5073601;28;20294;-75
2023/08/30 06:02:24;;;;;;;8.73;7.85;;;;;;;14.10;100.00;100554.56;5085976;28;20020;-75
2023/08/30 06:04:50;;;;;;;8.68;7.72;;;;;;;14.11;100.00;100561.53;5085509;28;20114;-75
2023/08/30 06:07:15;;;;;;;9.05;8.18;;;;;;;14.11;100.00;100558.91;5084717;28;20339;-75
2023/08/30 06:09:40;;;;;;;8.48;7.63;;;;;;;14.12;100.00;100555.34;5085343;28;20194;-75
2023/08/30 06:12:06;;;;;;;8.57;7.78;;;;;;;14.12;100.00;100553.56;5087897;28;20035;-75
2023/08/30 06:14:32;;;;;;;9.20;7.22;;;;;;;14.12;100.00;100548.28;5078960;28;20039;-75
2023/08/30 06:16:57;;;;;;;7.22;6.53;;;;;;;14.13;100.00;100549.13;5079953;28;20070;-75
2023/08/30 06:19:22;;;;;;;8.45;7.35;;;;;;;14.13;100.00;100541.22;5087403;28;20043;-75
2023/08/30 06:21:47;;;;;;;8.65;7.63;;;;;;;14.12;100.00;100532.50;5096943;28;20339;-75
2023/08/30 06:24:13;;;;;;;9.90;7.57;;;;;;;14.14;100.00;100529.78;5096413;28;20212;-75
2023/08/30 06:26:38;;;;;;;7.65;6.75;;;;;;;14.14;100.00;100532.41;5095515;28;20207;-75
2023/08/30 06:29:04;;;;;;;6.82;6.22;;;;;;;14.14;100.00;100529.78;5096747;28;20042;-75
2023/08/30 06:31:29;;;;;;;6.63;5.85;;;;;;;14.14;100.00;100532.41;5078324;28;20032;-75
2023/08/30 06:33:55;;;;;;;8.23;5.78;;;;;;;14.14;100.00;100527.97;5096665;28;20069;-75
2023/08/30 06:36:22;;;;;;;6.45;5.82;;;;;;;14.14;100.00;100525.34;5095752;28;20035;-75
2023/08/30 06:38:48;;;;;;;8.05;6.88;;;;;;;14.15;100.00;100531.44;5096097;28;20034;-75
2023/08/30 06:41:13;;;;;;;6.00;5.50;;;;;;;14.15;100.00;100534.94;5095770;28;20251;-75
2023/08/30 06:43:38;;;;;;;6.93;5.75;;;;;;;14.15;100.00;100527.03;5094720;28;20095;-75
2023/08/30 06:46:04;;;;;;;6.05;5.28;;;;;;;14.15;100.00;100521.78;5095652;28;20348;-75
2023/08/30 06:48:29;;;;;;;5.57;5.10;;;;;;;14.17;100.00;100503.22;5094953;28;20039;-75
2023/08/30 06:50:58;;;;;;;6.07;5.47;;;;;;;14.17;100.00;100505.88;5097148;28;20149;-76
2023/08/30 06:53:25;;;;;;;5.18;4.65;;;;;;;14.17;100.00;100511.13;5096630;28;20040;-75
2023/08/30 06:56:00;;;;;;;5.65;4.60;;;;;;;14.18;100.00;100510.19;5096385;28;20272;-75
2023/08/30 06:58:26;;;;;;;5.72;5.22;;;;;;;14.18;100.00;100505.78;5096249;28;20043;-75
2023/08/30 07:00:52;;;;;;;5.28;4.85;;;;;;;14.17;100.00;100506.72;5096530;28;20336;-75
2023/08/30 07:03:18;;;;;;;9.20;5.03;;;;;;;14.18;100.00;100500.50;5096333;28;20024;-75
2023/08/30 07:05:43;;;;;;;5.22;4.78;;;;;;;14.19;100.00;100496.09;5096670;28;20095;-75
2023/08/30 07:08:09;;;;;;;5.70;5.20;;;;;;;14.19;100.00;100494.31;5096308;28;20039;-75
2023/08/30 07:10:34;;;;;;;5.78;5.28;;;;;;;14.21;100.00;100486.31;5095895;28;20173;-75
2023/08/30 07:13:00;;;;;;;8.07;4.88;;;;;;;14.20;100.00;100489.88;5096256;28;20070;-75
2023/08/30 07:15:25;;;;;;;5.20;4.70;;;;;;;14.21;100.00;100479.25;5095776;28;20548;-75
2023/08/30 07:17:51;;;;;;;4.82;4.50;;;;;;;14.22;100.00;100482.72;5096335;28;20047;-75
2023/08/30 07:20:17;;;;;;;4.78;4.47;;;;;;;14.23;100.00;100478.34;5095531;28;20107;-75
2023/08/30 07:22:42;;;;;;;5.22;4.38;;;;;;;14.23;100.00;100473.91;5082826;28;20028;-75
2023/08/30 07:25:10;;;;;;;5.68;5.28;;;;;;;14.25;100.00;100479.06;5084167;28;20028;-75
2023/08/30 07:27:36;;;;;;;4.68;4.38;;;;;;;14.25;100.00;100479.91;5084983;28;20045;-75
2023/08/30 07:30:01;;;;;;;3.95;3.75;;;;;;;14.26;100.00;100473.72;5095999;28;20382;-76
2023/08/30 07:32:27;;;;;;;5.60;5.03;;;;;;;14.27;100.00;100470.13;5100366;28;20027;-75
2023/08/30 07:34:52;;;;;;;4.75;4.25;;;;;;;14.28;100.00;100465.69;5085267;28;20216;-75
2023/08/30 07:37:21;;;;;;;4.65;4.35;;;;;;;14.29;100.00;100468.25;5082170;28;20092;-75
2023/08/30 07:39:46;;;;;;;;;;;;;;;14.30;100.00;100469.09;5083159;28;20044;-75
2023/08/30 07:42:14;;;;;;;5.40;4.22;;;;;;;14.31;100.00;100465.53;5085923;28;19912;-75
2023/08/30 07:44:39;;;;;;;5.32;4.80;;;;;;;14.31;100.00;100469.00;5081170;28;20068;-75
2023/08/30 07:47:05;;;;;;;4.22;3.88;;;;;;;14.31;100.00;100458.44;5091178;28;20081;-75
2023/08/30 07:49:30;;;;;;;3.80;3.60;;;;;;;14.32;100.00;100461.94;5094966;28;20046;-75
2023/08/30 07:51:55;;;;;;;3.80;3.53;;;;;;;14.33;100.00;100455.72;5095335;28;20384;-75
2023/08/30 07:54:21;;;;;;;3.80;3.50;;;;;;;14.32;100.00;100457.53;5082052;28;20032;-75
2023/08/30 07:56:46;;;;;;;4.07;3.78;;;;;;;14.32;100.00;100454.88;5080874;28;20260;-75
2023/08/30 07:59:12;;;;;;;4.38;3.97;;;;;;;14.33;100.00;100463.63;5084585;28;20032;-75
2023/08/30 08:01:38;;;;;;;4.03;3.58;;;;;;;14.34;100.00;100465.34;5086527;28;20085;-75
2023/08/30 08:04:03;;;;;;;4.70;4.32;;;;;;;14.34;100.00;100462.69;5091983;28;20025;-75
2023/08/30 08:06:28;;;;;;;4.57;4.22;;;;;;;14.35;100.00;100459.97;5084270;28;20035;-75
2023/08/30 08:08:54;;;;;;;4.43;4.13;;;;;;;14.35;100.00;100456.47;5082093;28;20040;-75
2023/08/30 08:11:19;;;;;;;4.05;3.75;;;;;;;14.36;100.00;100459.00;5076972;28;20128;-75
2023/08/30 08:13:45;;;;;;;5.07;3.90;;;;;;;14.36;100.00;100461.66;5086809;28;20032;-75
2023/08/30 08:16:11;;;;;;;4.10;3.70;;;;;;;14.38;100.00;100464.19;5088371;28;20227;-75
2023/08/30 08:18:36;;;;;;;4.15;3.92;;;;;;;14.39;100.00;100466.75;5092934;28;20098;-75
2023/08/30 08:21:02;;;;;;;5.72;5.25;;;;;;;14.40;100.00;100464.94;5087371;28;20089;-75
2023/08/30 08:23:27;;;;;;;5.53;4.80;;;;;;;14.42;100.00;100455.16;5065957;28;20134;-75
2023/08/30 08:26:00;;;;;;;4.95;4.65;;;;;;;14.46;100.00;100453.16;5090770;28;20040;-75
2023/08/30 08:28:26;;;;;;;4.40;4.07;;;;;;;14.47;100.00;100457.50;5082286;28;20328;-75
2023/08/30 08:30:51;;;;;;;4.45;4.15;;;;;;;14.49;100.00;100464.34;5089342;28;20039;-75
2023/08/30 08:33:17;;;;;;;6.03;5.53;;;;;;;14.50;100.00;100467.88;5085552;28;20034;-75
2023/08/30 08:35:43;;;;;;;5.65;5.25;;;;;;;14.51;100.00;100459.00;5082229;28;20496;-75
2023/08/30 08:38:10;;;;;;;5.20;4.80;;;;;;;14.52;100.00;100461.53;5088850;28;20359;-75
2023/08/30 08:40:41;;;;;;;5.05;4.75;;;;;;;14.56;100.00;100459.56;5089848;28;20366;-75
2023/08/30 08:43:06;;;;;;;6.32;5.57;;;;;;;14.56;100.00;100468.31;5086451;28;20042;-75
2023/08/30 08:45:35;;;;;;;5.47;4.72;;;;;;;14.58;100.00;100462.97;5085876;28;20036;-75
2023/08/30 08:48:03;;;;;;;5.63;5.13;;;;;;;14.62;100.00;100463.63;5089768;28;20330;-75
2023/08/30 08:50:29;;;;;;;;;;;;;;;14.64;100.00;100470.47;5089927;28;20333;-75
2023/08/30 08:52:55;;;;;;;4.47;4.00;;;;;;;14.66;100.00;100473.88;5087384;28;19935;-75
2023/08/30 08:55:21;;;;;;;4.75;3.90;;;;;;;14.68;100.00;100479.91;5084829;28;20091;-75
2023/08/30 08:57:46;;;;;;;4.32;3.90;;;;;;;14.71;100.00;100484.13;5089259;28;20077;-75
2023/08/30 09:00:13;;;;;;;3.28;3.03;;;;;;;14.73;100.00;100492.78;5090629;28;20046;-75
2023/08/30 09:02:40;;;;;;;5.45;3.30;;;;;;;14.77;100.00;100491.63;5080863;28;20043;-75
2023/08/30 09:05:07;;;;;;;4.07;3.33;;;;;;;14.80;100.00;100493.25;5080770;28;20099;-75
2023/08/30 09:07:33;;;;;;;5.55;3.35;;;;;;;14.86;100.00;100495.47;5068713;28;20028;-75
2023/08/30 09:09:58;;;;;;;3.28;2.90;;;;;;;14.89;100.00;100496.13;5090638;28;20035;-75
2023/08/30 09:12:24;;;;;;;2.60;2.40;;;;;;;14.92;100.00;100493.28;5089958;28;20028;-75
2023/08/30 09:14:54;;;;;;;4.20;3.08;;;;;;;14.95;100.00;100494.88;5090589;28;20099;-75
2023/08/30 09:17:19;;;;;;;6.43;3.00;;;;;;;14.97;100.00;100500.91;5087652;28;20242;-75
2023/08/30 09:19:45;;;;;;;3.85;2.40;;;;;;;14.99;100.00;100504.31;5092579;28;20040;-75
2023/08/30 09:22:10;;;;;;;6.80;3.03;;;;;;;15.01;100.00;100512.97;5094721;28;20055;-75
2023/08/30 09:24:39;;;;;;;5.70;2.85;;;;;;;15.04;100.00;100507.47;5094162;28;20074;-75
2023/08/30 09:27:05;;;;;;;5.07;2.85;;;;;;;15.07;100.00;100509.06;5087932;28;20047;-75
2023/08/30 09:29:31;;;;;;;5.68;2.92;;;;;;;15.09;100.00;100501.91;5085830;28;20044;-75
2023/08/30 09:31:57;;;;;;;7.88;3.30;;;;;;;15.11;100.00;100498.22;5084355;28;20063;-75
2023/08/30 09:34:25;;;;;;;10.07;2.95;;;;;;;15.13;100.00;100501.63;5091181;28;20331;-75
2023/08/30 09:36:52;;;;;;;7.28;2.83;;;;;;;15.15;100.00;100510.28;5084037;28;20028;-75
2023/08/30 09:39:17;;;;;;;9.23;2.80;;;;;;;15.16;100.00;100514.59;5085928;28;20096;-75
2023/08/30 09:41:47;;;;;;;5.75;2.53;;;;;;;15.15;100.00;100505.00;5086243;28;20035;-75
2023/08/30 09:44:14;;;;;;;5.63;2.25;;;;;;;15.16;100.00;100519.88;5086492;28;20407;-75
2023/08/30 09:47:00;;;;;;;6.30;2.50;;;;;;;15.19;100.00;100510.06;5095177;28;20391;-75
2023/08/30 09:49:26;;;;;;;6.35;2.33;;;;;;;15.19;100.00;100510.94;5093117;28;20051;-75
2023/08/30 09:51:53;;;;;;;4.57;2.25;;;;;;;15.21;100.00;100510.78;5093824;28;20027;-75
2023/08/30 09:54:20;;;;;;;7.00;2.53;;;;;;;15.21;100.00;100514.31;5095364;28;20047;-75
2023/08/30 09:56:46;;;;;;;7.93;2.22;;;;;;;15.21;100.00;100509.03;5096104;28;20034;-75
2023/08/30 09:59:14;;;;;;;5.72;3.00;;;;;;;15.22;100.00;100504.59;5096251;28;20234;-74
2023/08/30 10:01:41;;;;;;;8.98;2.75;;;;;;;15.23;100.00;100506.28;5094436;28;20052;-75
2023/08/30 10:04:10;;;;;;;6.03;2.63;;;;;;;15.22;100.00;100521.25;5095200;28;20063;-75
2023/08/30 10:06:37;;;;;;;3.92;2.20;;;;;;;15.22;100.00;100523.88;5091068;28;20032;-75
2023/08/30 10:09:04;;;;;;;7.55;2.65;;;;;;;15.22;100.00;100533.59;5096237;28;20491;-75
2023/08/30 10:11:33;;;;;;;5.55;2.70;;;;;;;15.20;100.00;100538.13;5077659;28;20089;-75
2023/08/30 10:13:59;;;;;;;6.70;2.40;;;;;;;15.19;100.00;100539.94;5079037;28;20040;-75
2023/08/30 10:16:27;;;;;;;5.90;2.35;;;;;;;15.20;100.00;100546.06;5096537;28;20024;-75
2023/08/30 10:19:01;;;;;;;6.60;2.70;;;;;;;15.19;100.00;100546.97;5097076;28;20038;-75
2023/08/30 10:21:27;;;;;;;5.32;3.15;;;;;;;15.18;100.00;100547.94;5092377;28;20235;-75
2023/08/30 10:23:55;;;;;;;4.80;3.05;;;;;;;15.18;100.00;100542.66;5084773;28;20331;-75
2023/08/30 10:26:26;;;;;;;8.00;3.55;;;;;;;15.18;100.00;100540.03;5080356;28;20036;-75
2023/08/30 10:28:55;;;;;;;6.45;3.30;;;;;;;15.17;100.00;100544.44;5077366;28;20036;-75
2023/08/30 10:31:20;;;;;;;8.38;3.20;;;;;;;15.17;100.00;100541.81;5077529;28;20031;-75
2023/08/30 10:33:50;;;;;;;6.88;3.17;;;;;;;15.16;100.00;100540.97;5088036;28;20209;-75
2023/08/30 10:36:25;;;;;;;6.07;3.20;;;;;;;15.18;100.00;100553.22;5081681;28;20032;-75
2023/08/30 10:38:52;;;;;;;11.02;3.42;;;;;;;15.18;100.00;100547.94;5077252;28;20406;-75
2023/08/30 10:41:25;;;;;;;5.18;3.00;;;;;;;15.20;100.00;100553.97;5087407;28;20043;-75
2023/08/30 10:43:54;;;;;;;8.95;2.90;;;;;;;15.20;100.00;100544.25;5079493;28;20078;-75
2023/08/30 10:46:32;;;;;;;;;;;;;;;15.20;100.00;100552.16;5088840;28;20040;-75
2023/08/30 10:49:18;;;;;;;7.90;2.45;;;;;;;15.21;100.00;100560.91;5077851;28;20183;-75
2023/08/30 10:51:44;;;;;;;6.90;1.95;;;;;;;15.21;100.00;100558.28;5090035;28;20105;-75
2023/08/30 10:54:11;;;;;;;6.80;2.10;;;;;;;15.23;100.00;100561.69;5078102;28;20025;-75
2023/08/30 10:56:48;;;;;;;5.65;1.80;;;;;;;15.23;100.00;100557.25;5080763;28;20358;-75
2023/08/30 10:59:20;;;;;;;7.88;2.60;;;;;;;15.24;100.00;100566.00;5078911;28;20077;-75
2023/08/30 11:01:47;;;;;;;3.65;1.67;;;;;;;15.22;99.75;100563.47;5084819;28;20196;-75
2023/08/30 11:04:14;;;;;;;10.02;2.85;;;;;;;15.24;99.09;100568.63;5084053;28;20039;-75
2023/08/30 11:06:40;;;;;;;4.60;1.73;;;;;;;15.23;98.39;100570.44;5088080;28;20048;-76
2023/08/30 11:09:07;;;;;;;5.40;2.05;;;;;;;15.24;98.33;100566.00;5085883;28;20037;-75
2023/08/30 11:11:34;;;;;;;7.38;1.98;;;;;;;15.25;98.37;100570.34;5083129;28;20350;-75
2023/08/30 11:14:10;;;;;;;7.72;2.00;;;;;;;15.25;98.52;100573.00;5083401;28;20373;-75
2023/08/30 11:16:36;;;;;;;5.78;1.50;;;;;;;15.25;97.97;100573.81;5081755;28;20035;-75
2023/08/30 11:19:03;;;;;;;5.13;1.60;;;;;;;15.26;98.12;100570.25;5082799;28;20327;-75